createdAt,value
2017-12-28T00:02:08.142Z,81.30
2017-12-28T00:07:56.866Z,81.20
2017-12-28T00:13:25.101Z,81.20
2017-12-28T00:18:53.293Z,81.20
2017-12-28T00:24:29.663Z,81.20
2017-12-28T00:29:57.868Z,81.10
2017-12-28T00:35:26.840Z,80.80
2017-12-28T00:40:55.133Z,80.80
2017-12-28T00:46:25.051Z,80.80
2017-12-28T00:51:53.225Z,80.80
2017-12-28T00:57:23.104Z,80.90
2017-12-28T01:02:51.287Z,80.90
2017-12-28T01:08:19.524Z,81.00
2017-12-28T01:13:47.953Z,81.70
2017-12-28T01:19:17.764Z,81.00
2017-12-28T01:24:45.940Z,81.00
2017-12-28T01:30:16.126Z,81.10
2017-12-28T01:35:44.547Z,81.10
2017-12-28T01:41:12.741Z,81.20
2017-12-28T01:46:58.224Z,81.30
2017-12-28T01:52:26.643Z,81.30
2017-12-28T01:57:58.059Z,81.40
2017-12-28T02:03:26.269Z,81.50
2017-12-28T02:08:54.456Z,81.50
2017-12-28T02:14:28.128Z,81.30
2017-12-28T02:19:56.317Z,81.60
2017-12-28T02:25:28.021Z,81.50
2017-12-28T02:30:56.238Z,81.60
2017-12-28T02:36:25.411Z,81.50
2017-12-28T02:41:53.620Z,81.60
2017-12-28T02:47:22.776Z,81.60
2017-12-28T02:52:50.966Z,81.70
2017-12-28T02:58:19.177Z,81.60
2017-12-28T03:03:59.212Z,81.70
2017-12-28T03:09:28.662Z,81.60
2017-12-28T03:14:56.887Z,81.60
2017-12-28T03:20:25.086Z,81.60
2017-12-28T03:25:53.277Z,81.70
2017-12-28T03:31:22.431Z,81.80
2017-12-28T03:36:51.409Z,81.80
2017-12-28T03:42:19.623Z,81.70
2017-12-28T03:47:47.788Z,81.70
2017-12-28T03:53:15.995Z,81.70
2017-12-28T03:58:44.713Z,81.60
2017-12-28T04:04:13.857Z,81.60
2017-12-28T04:09:42.037Z,81.60
2017-12-28T04:15:10.999Z,81.40
2017-12-28T04:20:39.396Z,81.30
2017-12-28T04:26:08.348Z,81.30
2017-12-28T04:31:46.390Z,81.30
2017-12-28T04:37:14.592Z,81.10
2017-12-28T04:42:46.971Z,81.00
2017-12-28T04:48:15.178Z,81.00
2017-12-28T04:53:43.372Z,80.90
2017-12-28T04:59:12.547Z,81.00
2017-12-28T05:04:40.743Z,80.90
2017-12-28T05:10:09.703Z,81.20
2017-12-28T05:15:38.011Z,81.20
2017-12-28T05:21:20.414Z,81.20
2017-12-28T05:26:53.960Z,81.20
2017-12-28T05:32:22.155Z,81.30
2017-12-28T05:37:51.360Z,81.40
2017-12-28T05:43:19.538Z,81.60
2017-12-28T05:48:47.744Z,82.20
2017-12-28T05:54:16.704Z,81.70
2017-12-28T05:59:44.902Z,81.70
2017-12-28T06:05:13.867Z,81.90
2017-12-28T06:10:42.042Z,81.80
2017-12-28T06:16:10.251Z,81.80
2017-12-28T06:21:38.433Z,81.80
2017-12-28T06:27:06.608Z,81.80
2017-12-28T06:32:35.553Z,82.00
2017-12-28T06:38:04.507Z,82.00
2017-12-28T06:43:32.713Z,82.00
2017-12-28T06:49:00.911Z,82.70
2017-12-28T06:54:29.090Z,82.10
2017-12-28T06:59:57.333Z,82.20
2017-12-28T07:05:25.537Z,82.20
2017-12-28T07:10:53.719Z,82.30
2017-12-28T07:16:22.661Z,82.40
2017-12-28T07:21:51.606Z,82.50
2017-12-28T07:27:19.785Z,82.50
2017-12-28T07:32:47.965Z,82.50
2017-12-28T07:38:16.139Z,82.60
2017-12-28T07:43:44.311Z,82.70
2017-12-28T07:49:12.497Z,82.80
2017-12-28T07:54:40.699Z,82.70
2017-12-28T08:00:08.946Z,82.80
2017-12-28T08:05:37.153Z,82.80
2017-12-28T08:11:06.100Z,82.90
2017-12-28T08:16:35.051Z,83.00
2017-12-28T08:22:03.261Z,83.00
2017-12-28T08:27:32.217Z,83.20
2017-12-28T08:33:00.455Z,83.10
2017-12-28T08:44:16.232Z,83.10
2017-12-28T08:49:44.439Z,83.10
2017-12-28T08:55:13.399Z,83.60
2017-12-28T09:00:41.594Z,82.90
2017-12-28T09:06:10.774Z,82.80
2017-12-28T09:11:38.954Z,82.70
2017-12-28T09:17:07.914Z,82.70
2017-12-28T09:22:37.073Z,82.70
2017-12-28T09:28:05.272Z,82.60
2017-12-28T09:33:34.400Z,82.80
2017-12-28T09:39:04.597Z,82.80
2017-12-28T09:44:53.950Z,82.80
2017-12-28T09:50:23.082Z,82.90
2017-12-28T09:55:51.275Z,83.00
2017-12-28T10:01:20.473Z,83.10
2017-12-28T10:06:48.649Z,83.10
2017-12-28T10:12:16.932Z,83.30
2017-12-28T10:17:45.275Z,83.30
2017-12-28T10:23:14.517Z,83.10
2017-12-28T10:28:43.537Z,83.40
2017-12-28T10:34:11.751Z,83.60
2017-12-28T10:39:39.966Z,83.40
2017-12-28T10:45:08.182Z,83.50
2017-12-28T10:50:37.115Z,83.50
2017-12-28T10:56:05.421Z,83.60
2017-12-28T11:01:33.609Z,83.60
2017-12-28T11:07:02.593Z,83.60
2017-12-28T11:12:30.836Z,83.60
2017-12-28T11:17:59.032Z,83.50
2017-12-28T11:23:27.267Z,83.70
2017-12-28T11:28:56.388Z,83.80
2017-12-28T11:34:24.623Z,83.70
2017-12-28T11:39:52.826Z,83.70
2017-12-28T11:45:21.011Z,83.70
2017-12-28T11:50:49.976Z,83.60
2017-12-28T11:56:20.005Z,83.60
2017-12-28T12:01:54.633Z,83.40
2017-12-28T12:07:33.548Z,83.40
2017-12-28T12:13:02.493Z,84.00
2017-12-28T12:18:30.723Z,83.40
2017-12-28T12:24:00.631Z,83.40
2017-12-28T12:29:28.903Z,83.40
2017-12-28T12:34:57.852Z,83.90
2017-12-28T12:40:26.038Z,83.30
2017-12-28T12:45:54.225Z,83.20
2017-12-28T12:51:22.408Z,83.30
2017-12-28T12:56:50.574Z,83.20
2017-12-28T13:02:18.769Z,83.10
2017-12-28T13:07:46.968Z,83.00
2017-12-28T13:13:16.701Z,83.60
2017-12-28T13:18:46.142Z,82.90
2017-12-28T13:24:14.323Z,82.70
2017-12-28T13:29:44.549Z,82.80
2017-12-28T13:35:12.732Z,82.60
2017-12-28T13:40:40.943Z,82.70
2017-12-28T13:46:09.142Z,82.50
2017-12-28T13:51:37.316Z,82.60
2017-12-28T13:57:05.519Z,82.60
2017-12-28T14:02:33.723Z,82.50
2017-12-28T14:08:01.954Z,82.50
2017-12-28T14:13:30.148Z,82.60
2017-12-28T14:18:59.432Z,82.60
2017-12-28T14:24:27.646Z,82.70
2017-12-28T14:29:55.840Z,82.80
2017-12-28T14:35:24.033Z,82.80
2017-12-28T14:40:52.972Z,82.80
2017-12-28T14:46:21.155Z,82.70
2017-12-28T14:51:49.329Z,82.90
2017-12-28T14:57:17.535Z,83.00
2017-12-28T15:02:46.500Z,83.00
2017-12-28T15:08:14.682Z,83.10
2017-12-28T15:13:43.974Z,83.20
2017-12-28T15:19:12.180Z,83.20
2017-12-28T15:24:40.345Z,83.30
2017-12-28T15:30:08.554Z,83.40
2017-12-28T15:35:36.752Z,83.50
2017-12-28T15:41:04.929Z,83.50
2017-12-28T15:46:34.812Z,83.30
2017-12-28T15:52:03.023Z,83.30
2017-12-28T15:57:31.208Z,83.10
2017-12-28T16:02:59.397Z,83.00
2017-12-28T16:08:27.630Z,82.90
2017-12-28T16:13:55.823Z,82.80
2017-12-28T16:19:23.997Z,82.80
2017-12-28T16:24:52.164Z,82.60
2017-12-28T16:30:20.424Z,82.50
2017-12-28T16:35:48.615Z,83.20
2017-12-28T16:41:16.835Z,82.50
2017-12-28T16:46:45.038Z,82.50
2017-12-28T16:52:13.214Z,82.40
2017-12-28T16:57:41.403Z,82.10
2017-12-28T17:03:09.586Z,81.90
2017-12-28T17:08:38.548Z,81.80
2017-12-28T17:14:07.088Z,81.80
2017-12-28T17:19:36.186Z,81.60
2017-12-28T17:25:06.051Z,81.40
2017-12-28T17:30:35.039Z,81.20
2017-12-28T17:36:03.485Z,81.20
2017-12-28T17:41:32.976Z,81.00
2017-12-28T17:47:01.212Z,80.80
2017-12-28T17:52:29.419Z,80.50
2017-12-28T17:57:57.677Z,80.40
2017-12-28T18:03:28.028Z,80.40
2017-12-28T18:08:57.257Z,80.20
2017-12-28T18:14:27.448Z,80.20
2017-12-28T18:19:55.653Z,80.30
2017-12-28T18:25:23.868Z,80.40
2017-12-28T18:30:52.108Z,80.50
2017-12-28T18:36:20.332Z,80.80
2017-12-28T18:41:48.551Z,80.90
2017-12-28T18:47:16.756Z,81.20
2017-12-28T18:52:45.033Z,81.40
2017-12-28T18:58:19.082Z,81.60
2017-12-28T19:03:47.275Z,81.80
2017-12-28T19:09:21.742Z,81.90
2017-12-28T19:14:50.136Z,82.00
2017-12-28T19:20:19.115Z,82.20
2017-12-28T19:25:47.312Z,82.20
2017-12-28T19:31:15.527Z,82.30
2017-12-28T19:36:44.490Z,82.50
2017-12-28T19:42:13.478Z,82.60
2017-12-28T19:47:44.656Z,82.60
2017-12-28T19:53:12.857Z,82.50
2017-12-28T19:58:41.204Z,82.70
2017-12-28T20:04:11.237Z,82.80
2017-12-28T20:09:39.520Z,82.70
2017-12-28T20:15:07.793Z,82.90
2017-12-28T20:20:35.982Z,82.90
2017-12-28T20:26:05.399Z,83.00
2017-12-28T20:31:35.639Z,83.20
2017-12-28T20:37:04.091Z,83.20
2017-12-28T20:42:35.027Z,83.30
2017-12-28T20:48:06.561Z,83.30
2017-12-28T20:53:34.901Z,83.30
2017-12-28T20:59:03.139Z,83.30
2017-12-28T21:04:32.148Z,83.40
2017-12-28T21:10:01.016Z,83.40
2017-12-28T21:15:31.816Z,83.30
2017-12-28T21:21:14.422Z,83.30
2017-12-28T21:26:43.743Z,83.40
2017-12-28T21:32:12.738Z,83.30
2017-12-28T21:38:01.104Z,83.30
2017-12-28T21:43:30.417Z,83.10
2017-12-28T21:48:58.627Z,82.90
2017-12-28T21:54:30.740Z,82.80
2017-12-28T21:59:59.036Z,82.90
2017-12-28T22:05:27.323Z,82.70
2017-12-28T22:10:56.682Z,82.60
2017-12-28T22:16:24.888Z,82.50
2017-12-28T22:21:54.027Z,82.50
2017-12-28T22:27:23.144Z,82.30
2017-12-28T22:32:51.344Z,82.20
2017-12-28T22:38:26.134Z,82.10
2017-12-28T22:43:59.363Z,82.00
2017-12-28T22:49:27.577Z,81.70
2017-12-28T22:54:55.772Z,81.50
2017-12-28T23:00:23.972Z,81.40
2017-12-28T23:05:52.161Z,81.10
2017-12-28T23:11:20.360Z,80.80
2017-12-28T23:16:49.335Z,80.40
2017-12-28T23:22:17.517Z,80.40
2017-12-28T23:27:45.727Z,80.10
2017-12-28T23:33:33.729Z,79.80
2017-12-28T23:39:01.933Z,79.70
2017-12-28T23:44:30.492Z,79.50
2017-12-28T23:50:04.395Z,79.40
2017-12-28T23:55:32.585Z,79.30
